Tenjinmaru No11 — JD3353 — position and weather

sailwx.info

Track history (hours):
 
Tides and Currents Weather Stations Pressure Air Temp Water Temp Dewpoint Dewpoint Depression Visibility Wind Speed Wind Dir Waves Ship Positions

Tenjinmaru No11

Last reported at 2015-Jan-13 02:31 UTC. Time now 2015-Jan-30 07:56 UTC.
Position N 34°53' E 139°58'.
Warning: this ship's position is 17 days out of date.

Length 75 m; draft 4.2 m.

Type: Cargo ship. MMSI: 431003485.

Date/timePositionNaut miles runAvg speedWind from/ knotsBaromVisibWave heightAir tempDewpointWater temp
2015-Jan-13 02:31N 34°53' E 139°58'1010.7
2015-Jan-13 01:33N 34°55' E 139°46'1111.1
2015-Jan-13 00:33N 35°06' E 139°45'1111.4
2015-Jan-12 23:33N 35°17' E 139°45'6 5.9
2015-Jan-12 22:33N 35°22' E 139°40'0 0.0
2015-Jan-12 21:34N 35°22' E 139°40'0 0.0
2015-Jan-12 20:33N 35°22' E 139°40'0 0.0
2015-Jan-12 19:33N 35°22' E 139°40'0 0.0
2015-Jan-12 18:33N 35°22' E 139°40'0 0.0
2015-Jan-12 17:33N 35°22' E 139°40'0 0.0
2015-Jan-12 16:34N 35°22' E 139°40'0 0.0
2015-Jan-12 15:33N 35°22' E 139°40'0 0.0
2015-Jan-12 14:33N 35°22' E 139°40'0 0.0
2015-Jan-12 13:33N 35°22' E 139°40'0 0.0
2015-Jan-12 12:33N 35°22' E 139°40'0 0.0
2015-Jan-12 11:34N 35°22' E 139°40'0 0.0
2015-Jan-12 10:33N 35°22' E 139°40'0 0.0
2015-Jan-12 09:33N 35°22' E 139°40'0 0.0
2015-Jan-12 08:34N 35°22' E 139°40'0 0.0
2015-Jan-12 07:33N 35°22' E 139°40'0 0.0
2015-Jan-12 06:33N 35°22' E 139°40'0 0.0
2015-Jan-12 05:33N 35°22' E 139°40'0 0.0
2015-Jan-12 04:33N 35°22' E 139°40'0 0.0
2015-Jan-12 03:33N 35°22' E 139°40'0 0.0
2015-Jan-12 02:34N 35°22' E 139°40'0 0.0
2015-Jan-12 01:33N 35°22' E 139°40'0 0.0
2015-Jan-12 00:34N 35°22' E 139°40'0 0.0
2015-Jan-11 23:33N 35°22' E 139°40'0 0.0
2015-Jan-11 22:34N 35°22' E 139°40'0 0.0
2015-Jan-11 21:33N 35°22' E 139°40'0 0.0
2015-Jan-11 20:34N 35°22' E 139°40'0 0.0
2015-Jan-11 19:34N 35°22' E 139°40'0 0.0
2015-Jan-11 18:34N 35°22' E 139°40'0 0.0
2015-Jan-11 17:34N 35°22' E 139°40'0 0.0
2015-Jan-11 16:33N 35°22' E 139°40'0 0.0
2015-Jan-11 15:33N 35°22' E 139°40'0 0.0
2015-Jan-11 14:34N 35°22' E 139°40'0 0.0
2015-Jan-11 13:33N 35°22' E 139°40'0 0.1
2015-Jan-11 12:32N 35°22' E 139°40'0 0.0
2015-Jan-11 11:34N 35°22' E 139°40'0 0.0
2015-Jan-11 10:33N 35°22' E 139°40'0 0.0
2015-Jan-11 09:33N 35°22' E 139°40'0 0.0
2015-Jan-11 08:33N 35°22' E 139°40'0 0.0
2015-Jan-11 07:33N 35°22' E 139°40'0 0.0
2015-Jan-11 06:33N 35°22' E 139°40'0 0.0
2015-Jan-11 05:33N 35°22' E 139°40'4 4.1
2015-Jan-11 04:34N 35°25' E 139°44'7 1.4
2015-Jan-10 23:24N 35°21' E 139°51'0 0.1
2015-Jan-10 22:25N 35°21' E 139°51'0 0.1
2015-Jan-10 21:06N 35°21' E 139°51'0 0.0
2015-Jan-10 18:33N 35°21' E 139°51'0 0.1
2015-Jan-10 17:31N 35°21' E 139°51'0 0.0
2015-Jan-10 13:30N 35°21' E 139°51'1 0.1
2015-Jan-10 00:33N 35°22' E 139°50'0 0.4
2015-Jan-09 23:34N 35°22' E 139°49'0 0.0
2015-Jan-09 22:34N 35°22' E 139°49'0 0.1
2015-Jan-09 21:33N 35°22' E 139°49'6 5.7
2015-Jan-09 20:34N 35°18' E 139°45'10 9.7
2015-Jan-09 19:33N 35°08' E 139°43'1111.1
2015-Jan-09 18:32N 35°04' E 139°30'1311.7
2015-Jan-09 17:23N 34°60' E 139°15'1012.2
2015-Jan-09 16:33N 34°51' E 139°09'  
Track history (hours):
 
Tides and Currents Weather Stations Pressure Air Temp Water Temp Dewpoint Dewpoint Depression Visibility Wind Speed Wind Dir Waves Ship Positions

Tenjinmaru No11

Last reported at 2015-Jan-13 02:31 UTC. Time now 2015-Jan-30 07:56 UTC.
Position N 34°53' E 139°58'.
Warning: this ship's position is 17 days out of date.

Length 75 m; draft 4.2 m.

Type: Cargo ship. MMSI: 431003485.

Date/timePositionNaut miles runAvg speedWind from/ knotsBaromVisibWave heightAir tempDewpointWater temp
2015-Jan-13 02:31N 34°53' E 139°58'1010.7
2015-Jan-13 01:33N 34°55' E 139°46'1111.1
2015-Jan-13 00:33N 35°06' E 139°45'1111.4
2015-Jan-12 23:33N 35°17' E 139°45'6 5.9
2015-Jan-12 22:33N 35°22' E 139°40'0 0.0
2015-Jan-12 21:34N 35°22' E 139°40'0 0.0
2015-Jan-12 20:33N 35°22' E 139°40'0 0.0
2015-Jan-12 19:33N 35°22' E 139°40'0 0.0
2015-Jan-12 18:33N 35°22' E 139°40'0 0.0
2015-Jan-12 17:33N 35°22' E 139°40'0 0.0
2015-Jan-12 16:34N 35°22' E 139°40'0 0.0
2015-Jan-12 15:33N 35°22' E 139°40'0 0.0
2015-Jan-12 14:33N 35°22' E 139°40'0 0.0
2015-Jan-12 13:33N 35°22' E 139°40'0 0.0
2015-Jan-12 12:33N 35°22' E 139°40'0 0.0
2015-Jan-12 11:34N 35°22' E 139°40'0 0.0
2015-Jan-12 10:33N 35°22' E 139°40'0 0.0
2015-Jan-12 09:33N 35°22' E 139°40'0 0.0
2015-Jan-12 08:34N 35°22' E 139°40'0 0.0
2015-Jan-12 07:33N 35°22' E 139°40'0 0.0
2015-Jan-12 06:33N 35°22' E 139°40'0 0.0
2015-Jan-12 05:33N 35°22' E 139°40'0 0.0
2015-Jan-12 04:33N 35°22' E 139°40'0 0.0
2015-Jan-12 03:33N 35°22' E 139°40'0 0.0
2015-Jan-12 02:34N 35°22' E 139°40'0 0.0
2015-Jan-12 01:33N 35°22' E 139°40'0 0.0
2015-Jan-12 00:34N 35°22' E 139°40'0 0.0
2015-Jan-11 23:33N 35°22' E 139°40'0 0.0
2015-Jan-11 22:34N 35°22' E 139°40'0 0.0
2015-Jan-11 21:33N 35°22' E 139°40'0 0.0
2015-Jan-11 20:34N 35°22' E 139°40'0 0.0
2015-Jan-11 19:34N 35°22' E 139°40'0 0.0
2015-Jan-11 18:34N 35°22' E 139°40'0 0.0
2015-Jan-11 17:34N 35°22' E 139°40'0 0.0
2015-Jan-11 16:33N 35°22' E 139°40'0 0.0
2015-Jan-11 15:33N 35°22' E 139°40'0 0.0
2015-Jan-11 14:34N 35°22' E 139°40'0 0.0
2015-Jan-11 13:33N 35°22' E 139°40'0 0.1
2015-Jan-11 12:32N 35°22' E 139°40'0 0.0
2015-Jan-11 11:34N 35°22' E 139°40'0 0.0
2015-Jan-11 10:33N 35°22' E 139°40'0 0.0
2015-Jan-11 09:33N 35°22' E 139°40'0 0.0
2015-Jan-11 08:33N 35°22' E 139°40'0 0.0
2015-Jan-11 07:33N 35°22' E 139°40'0 0.0
2015-Jan-11 06:33N 35°22' E 139°40'0 0.0
2015-Jan-11 05:33N 35°22' E 139°40'4 4.1
2015-Jan-11 04:34N 35°25' E 139°44'7 1.4
2015-Jan-10 23:24N 35°21' E 139°51'0 0.1
2015-Jan-10 22:25N 35°21' E 139°51'0 0.1
2015-Jan-10 21:06N 35°21' E 139°51'0 0.0
2015-Jan-10 18:33N 35°21' E 139°51'0 0.1
2015-Jan-10 17:31N 35°21' E 139°51'0 0.0
2015-Jan-10 13:30N 35°21' E 139°51'1 0.1
2015-Jan-10 00:33N 35°22' E 139°50'0 0.4
2015-Jan-09 23:34N 35°22' E 139°49'0 0.0
2015-Jan-09 22:34N 35°22' E 139°49'0 0.1
2015-Jan-09 21:33N 35°22' E 139°49'6 5.7
2015-Jan-09 20:34N 35°18' E 139°45'10 9.7
2015-Jan-09 19:33N 35°08' E 139°43'1111.1
2015-Jan-09 18:32N 35°04' E 139°30'1311.7
2015-Jan-09 17:23N 34°60' E 139°15'1012.2
2015-Jan-09 16:33N 34°51' E 139°09'  

Dump ship's entire track history